sensor_id;sensor_type;location;lat;lon;timestamp;temperature;humidity
35690;DHT22;26977;44.830;-0.674;2022-11-20T00:01:19;4.60;99.90
35690;DHT22;26977;44.830;-0.674;2022-11-20T00:03:45;4.50;99.90
35690;DHT22;26977;44.830;-0.674;2022-11-20T00:06:13;4.50;99.90
35690;DHT22;26977;44.830;-0.674;2022-11-20T00:08:40;4.60;99.90
35690;DHT22;26977;44.830;-0.674;2022-11-20T00:11:14;4.60;99.90
35690;DHT22;26977;44.830;-0.674;2022-11-20T00:13:40;4.60;99.90
35690;DHT22;26977;44.830;-0.674;2022-11-20T00:16:09;4.60;99.90
35690;DHT22;26977;44.830;-0.674;2022-11-20T00:18:37;4.50;99.90
35690;DHT22;26977;44.830;-0.674;2022-11-20T00:21:10;4.50;99.90
35690;DHT22;26977;44.830;-0.674;2022-11-20T00:23:36;4.40;99.90
35690;DHT22;26977;44.830;-0.674;2022-11-20T00:26:04;4.50;99.90
35690;DHT22;26977;44.830;-0.674;2022-11-20T00:28:30;4.50;99.90
35690;DHT22;26977;44.830;-0.674;2022-11-20T00:31:07;4.50;99.90
35690;DHT22;26977;44.830;-0.674;2022-11-20T00:33:34;4.50;99.90
35690;DHT22;26977;44.830;-0.674;2022-11-20T00:36:09;4.50;99.90
35690;DHT22;26977;44.830;-0.674;2022-11-20T00:38:35;4.50;99.90
35690;DHT22;26977;44.830;-0.674;2022-11-20T00:41:04;4.50;99.90
35690;DHT22;26977;44.830;-0.674;2022-11-20T00:43:30;4.50;99.90
35690;DHT22;26977;44.830;-0.674;2022-11-20T00:46:03;4.50;99.90
35690;DHT22;26977;44.830;-0.674;2022-11-20T00:48:31;4.40;99.90
35690;DHT22;26977;44.830;-0.674;2022-11-20T00:50:57;4.30;99.90
35690;DHT22;26977;44.830;-0.674;2022-11-20T00:53:23;4.30;99.90
35690;DHT22;26977;44.830;-0.674;2022-11-20T00:58:18;4.20;99.90
35690;DHT22;26977;44.830;-0.674;2022-11-20T01:00:44;4.20;99.90
35690;DHT22;26977;44.830;-0.674;2022-11-20T01:03:10;4.20;99.90
35690;DHT22;26977;44.830;-0.674;2022-11-20T01:05:35;4.20;99.90
35690;DHT22;26977;44.830;-0.674;2022-11-20T01:08:01;4.20;99.90
35690;DHT22;26977;44.830;-0.674;2022-11-20T01:10:27;4.20;99.90
35690;DHT22;26977;44.830;-0.674;2022-11-20T01:12:53;4.10;99.90
35690;DHT22;26977;44.830;-0.674;2022-11-20T01:15:38;4.10;99.90
35690;DHT22;26977;44.830;-0.674;2022-11-20T01:18:04;4.10;99.90
35690;DHT22;26977;44.830;-0.674;2022-11-20T01:20:34;4.10;99.90
35690;DHT22;26977;44.830;-0.674;2022-11-20T01:23:02;4.10;99.90
35690;DHT22;26977;44.830;-0.674;2022-11-20T01:25:28;4.10;99.90
35690;DHT22;26977;44.830;-0.674;2022-11-20T01:27:54;4.10;99.90
35690;DHT22;26977;44.830;-0.674;2022-11-20T01:30:22;4.20;99.90
35690;DHT22;26977;44.830;-0.674;2022-11-20T01:32:47;4.30;99.90
35690;DHT22;26977;44.830;-0.674;2022-11-20T01:35:13;4.40;99.90
35690;DHT22;26977;44.830;-0.674;2022-11-20T01:37:39;4.40;99.90
35690;DHT22;26977;44.830;-0.674;2022-11-20T01:40:05;4.50;99.90
35690;DHT22;26977;44.830;-0.674;2022-11-20T01:42:31;4.70;99.90
35690;DHT22;26977;44.830;-0.674;2022-11-20T01:48:12;4.80;99.90
35690;DHT22;26977;44.830;-0.674;2022-11-20T01:50:39;4.90;99.90
35690;DHT22;26977;44.830;-0.674;2022-11-20T01:53:09;5.00;99.90
35690;DHT22;26977;44.830;-0.674;2022-11-20T01:55:41;5.00;99.90
35690;DHT22;26977;44.830;-0.674;2022-11-20T01:58:09;5.10;99.90
35690;DHT22;26977;44.830;-0.674;2022-11-20T02:00:35;5.20;99.90
35690;DHT22;26977;44.830;-0.674;2022-11-20T02:03:05;5.20;99.90
35690;DHT22;26977;44.830;-0.674;2022-11-20T02:05:38;5.30;99.90
35690;DHT22;26977;44.830;-0.674;2022-11-20T02:08:07;5.40;99.90
35690;DHT22;26977;44.830;-0.674;2022-11-20T02:10:33;5.40;99.90
35690;DHT22;26977;44.830;-0.674;2022-11-20T02:12:59;5.40;99.90
35690;DHT22;26977;44.830;-0.674;2022-11-20T02:15:45;5.40;99.90
35690;DHT22;26977;44.830;-0.674;2022-11-20T02:18:14;5.40;99.90
35690;DHT22;26977;44.830;-0.674;2022-11-20T02:20:46;5.30;99.90
35690;DHT22;26977;44.830;-0.674;2022-11-20T02:26:02;5.20;99.90
35690;DHT22;26977;44.830;-0.674;2022-11-20T02:28:29;5.30;99.90
35690;DHT22;26977;44.830;-0.674;2022-11-20T02:30:57;5.30;99.90
35690;DHT22;26977;44.830;-0.674;2022-11-20T02:33:23;5.30;99.90
35690;DHT22;26977;44.830;-0.674;2022-11-20T02:35:51;5.40;99.90
35690;DHT22;26977;44.830;-0.674;2022-11-20T02:38:17;5.50;99.90
35690;DHT22;26977;44.830;-0.674;2022-11-20T02:40:43;5.50;99.90
35690;DHT22;26977;44.830;-0.674;2022-11-20T02:43:09;5.60;99.90
35690;DHT22;26977;44.830;-0.674;2022-11-20T02:45:35;5.70;99.90
35690;DHT22;26977;44.830;-0.674;2022-11-20T02:48:01;5.70;99.90
35690;DHT22;26977;44.830;-0.674;2022-11-20T02:50:27;5.70;99.90
35690;DHT22;26977;44.830;-0.674;2022-11-20T02:52:52;5.80;99.90
35690;DHT22;26977;44.830;-0.674;2022-11-20T02:55:30;5.80;99.90
35690;DHT22;26977;44.830;-0.674;2022-11-20T02:57:56;5.80;99.90
35690;DHT22;26977;44.830;-0.674;2022-11-20T03:00:24;5.80;99.90
35690;DHT22;26977;44.830;-0.674;2022-11-20T03:02:50;5.90;99.90
35690;DHT22;26977;44.830;-0.674;2022-11-20T03:05:15;5.90;99.90
35690;DHT22;26977;44.830;-0.674;2022-11-20T03:07:42;6.00;99.90
35690;DHT22;26977;44.830;-0.674;2022-11-20T03:10:10;6.00;99.90
35690;DHT22;26977;44.830;-0.674;2022-11-20T03:12:36;6.10;99.90
35690;DHT22;26977;44.830;-0.674;2022-11-20T03:15:02;6.10;99.90
35690;DHT22;26977;44.830;-0.674;2022-11-20T03:17:28;6.20;99.90
35690;DHT22;26977;44.830;-0.674;2022-11-20T03:19:54;6.20;99.90
35690;DHT22;26977;44.830;-0.674;2022-11-20T03:22:20;6.30;99.90
35690;DHT22;26977;44.830;-0.674;2022-11-20T03:24:46;6.30;99.90
35690;DHT22;26977;44.830;-0.674;2022-11-20T03:27:11;6.40;99.90
35690;DHT22;26977;44.830;-0.674;2022-11-20T03:29:50;6.50;99.90
35690;DHT22;26977;44.830;-0.674;2022-11-20T03:32:16;6.50;99.90
35690;DHT22;26977;44.830;-0.674;2022-11-20T03:34:52;6.50;99.90
35690;DHT22;26977;44.830;-0.674;2022-11-20T03:37:18;6.50;99.90
35690;DHT22;26977;44.830;-0.674;2022-11-20T03:39:43;6.50;99.90
35690;DHT22;26977;44.830;-0.674;2022-11-20T03:42:09;6.60;99.90
35690;DHT22;26977;44.830;-0.674;2022-11-20T03:44:57;6.60;99.90
35690;DHT22;26977;44.830;-0.674;2022-11-20T03:47:23;6.70;99.90
35690;DHT22;26977;44.830;-0.674;2022-11-20T03:49:49;6.70;99.90
35690;DHT22;26977;44.830;-0.674;2022-11-20T03:52:15;6.70;99.90
35690;DHT22;26977;44.830;-0.674;2022-11-20T03:54:40;6.70;99.90
35690;DHT22;26977;44.830;-0.674;2022-11-20T03:57:06;6.80;99.90
35690;DHT22;26977;44.830;-0.674;2022-11-20T03:59:32;6.80;99.90
35690;DHT22;26977;44.830;-0.674;2022-11-20T04:01:58;6.80;99.90
35690;DHT22;26977;44.830;-0.674;2022-11-20T04:04:23;6.80;99.90
35690;DHT22;26977;44.830;-0.674;2022-11-20T04:06:49;6.80;99.90
35690;DHT22;26977;44.830;-0.674;2022-11-20T04:09:15;6.80;99.90
35690;DHT22;26977;44.830;-0.674;2022-11-20T04:11:41;6.80;99.90
35690;DHT22;26977;44.830;-0.674;2022-11-20T04:14:13;6.90;99.90
35690;DHT22;26977;44.830;-0.674;2022-11-20T04:16:39;6.90;99.90
35690;DHT22;26977;44.830;-0.674;2022-11-20T04:19:11;6.90;99.90
35690;DHT22;26977;44.830;-0.674;2022-11-20T04:21:37;7.00;99.90
35690;DHT22;26977;44.830;-0.674;2022-11-20T04:24:16;7.00;99.90
35690;DHT22;26977;44.830;-0.674;2022-11-20T04:26:41;7.10;99.90
35690;DHT22;26977;44.830;-0.674;2022-11-20T04:29:18;7.10;99.90
35690;DHT22;26977;44.830;-0.674;2022-11-20T04:31:43;7.20;99.90
35690;DHT22;26977;44.830;-0.674;2022-11-20T04:34:11;7.20;99.90
35690;DHT22;26977;44.830;-0.674;2022-11-20T04:36:37;7.20;99.90
35690;DHT22;26977;44.830;-0.674;2022-11-20T04:39:05;7.10;99.90
35690;DHT22;26977;44.830;-0.674;2022-11-20T04:41:33;7.20;99.90
35690;DHT22;26977;44.830;-0.674;2022-11-20T04:44:00;7.20;99.90
35690;DHT22;26977;44.830;-0.674;2022-11-20T04:46:29;7.20;99.90
35690;DHT22;26977;44.830;-0.674;2022-11-20T04:48:55;7.20;99.90
35690;DHT22;26977;44.830;-0.674;2022-11-20T04:51:21;7.20;99.90
35690;DHT22;26977;44.830;-0.674;2022-11-20T04:53:47;7.10;99.90
35690;DHT22;26977;44.830;-0.674;2022-11-20T04:56:13;7.20;99.90
35690;DHT22;26977;44.830;-0.674;2022-11-20T04:58:39;7.20;99.90
35690;DHT22;26977;44.830;-0.674;2022-11-20T05:01:09;7.30;99.90
35690;DHT22;26977;44.830;-0.674;2022-11-20T05:03:35;7.30;99.90
35690;DHT22;26977;44.830;-0.674;2022-11-20T05:06:05;7.30;99.90
35690;DHT22;26977;44.830;-0.674;2022-11-20T05:08:33;7.30;99.90
35690;DHT22;26977;44.830;-0.674;2022-11-20T05:11:20;7.40;99.90
35690;DHT22;26977;44.830;-0.674;2022-11-20T05:13:46;7.40;99.90
35690;DHT22;26977;44.830;-0.674;2022-11-20T05:16:14;7.40;99.90
35690;DHT22;26977;44.830;-0.674;2022-11-20T05:18:41;7.50;99.90
35690;DHT22;26977;44.830;-0.674;2022-11-20T05:21:07;7.50;99.90
35690;DHT22;26977;44.830;-0.674;2022-11-20T05:23:34;7.50;99.90
35690;DHT22;26977;44.830;-0.674;2022-11-20T05:26:00;7.50;99.90
35690;DHT22;26977;44.830;-0.674;2022-11-20T05:28:28;7.50;99.90
35690;DHT22;26977;44.830;-0.674;2022-11-20T05:30:54;7.50;99.90
35690;DHT22;26977;44.830;-0.674;2022-11-20T05:33:20;7.50;99.90
35690;DHT22;26977;44.830;-0.674;2022-11-20T05:35:59;7.50;99.90
35690;DHT22;26977;44.830;-0.674;2022-11-20T05:38:24;7.50;99.90
35690;DHT22;26977;44.830;-0.674;2022-11-20T05:40:50;7.50;99.90
35690;DHT22;26977;44.830;-0.674;2022-11-20T05:43:16;7.50;99.90
35690;DHT22;26977;44.830;-0.674;2022-11-20T05:45:54;7.50;99.90
35690;DHT22;26977;44.830;-0.674;2022-11-20T05:48:24;7.50;99.90
35690;DHT22;26977;44.830;-0.674;2022-11-20T05:50:50;7.40;99.90
35690;DHT22;26977;44.830;-0.674;2022-11-20T05:53:16;7.40;99.90
35690;DHT22;26977;44.830;-0.674;2022-11-20T05:55:42;7.50;99.90
35690;DHT22;26977;44.830;-0.674;2022-11-20T05:58:07;7.50;99.90
35690;DHT22;26977;44.830;-0.674;2022-11-20T06:00:35;7.50;99.90
35690;DHT22;26977;44.830;-0.674;2022-11-20T06:03:02;7.50;99.90
35690;DHT22;26977;44.830;-0.674;2022-11-20T06:05:28;7.50;99.90
35690;DHT22;26977;44.830;-0.674;2022-11-20T06:07:53;7.50;99.90
35690;DHT22;26977;44.830;-0.674;2022-11-20T06:10:21;7.50;99.90
35690;DHT22;26977;44.830;-0.674;2022-11-20T06:12:47;7.50;99.90
35690;DHT22;26977;44.830;-0.674;2022-11-20T06:15:13;7.50;99.90
35690;DHT22;26977;44.830;-0.674;2022-11-20T06:17:39;7.40;99.90
35690;DHT22;26977;44.830;-0.674;2022-11-20T06:20:08;7.40;99.90
35690;DHT22;26977;44.830;-0.674;2022-11-20T06:22:34;7.40;99.90
35690;DHT22;26977;44.830;-0.674;2022-11-20T06:24:59;7.30;99.90
35690;DHT22;26977;44.830;-0.674;2022-11-20T06:27:25;7.20;99.90
35690;DHT22;26977;44.830;-0.674;2022-11-20T06:29:51;7.10;99.90
35690;DHT22;26977;44.830;-0.674;2022-11-20T06:32:16;7.10;99.90
35690;DHT22;26977;44.830;-0.674;2022-11-20T06:34:42;7.10;99.90
35690;DHT22;26977;44.830;-0.674;2022-11-20T06:37:08;7.10;99.90
35690;DHT22;26977;44.830;-0.674;2022-11-20T06:39:33;7.20;99.90
35690;DHT22;26977;44.830;-0.674;2022-11-20T06:41:59;7.30;99.90
35690;DHT22;26977;44.830;-0.674;2022-11-20T06:44:35;7.30;99.90
35690;DHT22;26977;44.830;-0.674;2022-11-20T06:47:01;7.30;99.90
35690;DHT22;26977;44.830;-0.674;2022-11-20T06:49:37;7.40;99.90
35690;DHT22;26977;44.830;-0.674;2022-11-20T06:52:04;7.40;99.90
35690;DHT22;26977;44.830;-0.674;2022-11-20T06:54:29;7.50;99.90
35690;DHT22;26977;44.830;-0.674;2022-11-20T06:56:55;7.50;99.90
35690;DHT22;26977;44.830;-0.674;2022-11-20T06:59:21;7.50;99.90
35690;DHT22;26977;44.830;-0.674;2022-11-20T07:01:47;7.50;99.90
35690;DHT22;26977;44.830;-0.674;2022-11-20T07:04:12;7.60;99.90
35690;DHT22;26977;44.830;-0.674;2022-11-20T07:06:38;7.60;99.90
35690;DHT22;26977;44.830;-0.674;2022-11-20T07:09:28;7.60;99.90
35690;DHT22;26977;44.830;-0.674;2022-11-20T07:11:54;7.70;99.90
35690;DHT22;26977;44.830;-0.674;2022-11-20T07:14:19;7.70;99.90
35690;DHT22;26977;44.830;-0.674;2022-11-20T07:16:45;7.70;99.90
35690;DHT22;26977;44.830;-0.674;2022-11-20T07:19:13;7.70;99.90
35690;DHT22;26977;44.830;-0.674;2022-11-20T07:21:39;7.70;99.90
35690;DHT22;26977;44.830;-0.674;2022-11-20T07:24:05;7.80;99.90
35690;DHT22;26977;44.830;-0.674;2022-11-20T07:26:30;7.80;99.90
35690;DHT22;26977;44.830;-0.674;2022-11-20T07:28:56;7.80;99.90
35690;DHT22;26977;44.830;-0.674;2022-11-20T07:31:22;7.90;99.90
35690;DHT22;26977;44.830;-0.674;2022-11-20T07:33:50;7.90;99.90
35690;DHT22;26977;44.830;-0.674;2022-11-20T07:36:16;8.00;99.90
35690;DHT22;26977;44.830;-0.674;2022-11-20T07:38:41;8.00;99.90
35690;DHT22;26977;44.830;-0.674;2022-11-20T07:41:09;8.10;99.90
35690;DHT22;26977;44.830;-0.674;2022-11-20T07:43:35;8.10;99.90
35690;DHT22;26977;44.830;-0.674;2022-11-20T07:46:01;8.10;99.90
35690;DHT22;26977;44.830;-0.674;2022-11-20T07:48:38;8.20;99.90
35690;DHT22;26977;44.830;-0.674;2022-11-20T07:51:06;8.20;99.90
35690;DHT22;26977;44.830;-0.674;2022-11-20T07:53:32;8.30;99.90
35690;DHT22;26977;44.830;-0.674;2022-11-20T07:56:02;8.30;99.90
35690;DHT22;26977;44.830;-0.674;2022-11-20T07:58:38;8.30;99.90
35690;DHT22;26977;44.830;-0.674;2022-11-20T08:01:07;8.40;99.90
35690;DHT22;26977;44.830;-0.674;2022-11-20T08:03:43;8.50;99.90
35690;DHT22;26977;44.830;-0.674;2022-11-20T08:06:09;8.50;99.90
35690;DHT22;26977;44.830;-0.674;2022-11-20T08:08:35;8.60;99.90
35690;DHT22;26977;44.830;-0.674;2022-11-20T08:11:00;8.60;99.90
35690;DHT22;26977;44.830;-0.674;2022-11-20T08:13:44;8.70;99.90
35690;DHT22;26977;44.830;-0.674;2022-11-20T08:16:28;8.60;99.90
35690;DHT22;26977;44.830;-0.674;2022-11-20T08:18:54;8.60;99.90
35690;DHT22;26977;44.830;-0.674;2022-11-20T08:21:20;8.70;99.90
35690;DHT22;26977;44.830;-0.674;2022-11-20T08:23:46;8.70;99.90
35690;DHT22;26977;44.830;-0.674;2022-11-20T08:26:12;8.80;99.90
35690;DHT22;26977;44.830;-0.674;2022-11-20T08:28:38;8.80;99.90
35690;DHT22;26977;44.830;-0.674;2022-11-20T08:31:04;8.90;99.90
35690;DHT22;26977;44.830;-0.674;2022-11-20T08:33:33;8.90;99.90
35690;DHT22;26977;44.830;-0.674;2022-11-20T08:36:03;9.00;99.90
35690;DHT22;26977;44.830;-0.674;2022-11-20T08:38:29;9.00;99.90
35690;DHT22;26977;44.830;-0.674;2022-11-20T08:41:02;9.10;99.90
35690;DHT22;26977;44.830;-0.674;2022-11-20T08:43:46;9.10;99.90
35690;DHT22;26977;44.830;-0.674;2022-11-20T08:46:12;9.10;99.90
35690;DHT22;26977;44.830;-0.674;2022-11-20T08:48:39;9.20;99.90
35690;DHT22;26977;44.830;-0.674;2022-11-20T08:51:05;9.30;99.90
35690;DHT22;26977;44.830;-0.674;2022-11-20T08:53:30;9.30;99.90
35690;DHT22;26977;44.830;-0.674;2022-11-20T08:55:57;9.40;99.90
35690;DHT22;26977;44.830;-0.674;2022-11-20T08:58:23;9.50;99.90
35690;DHT22;26977;44.830;-0.674;2022-11-20T09:00:49;9.60;99.90
35690;DHT22;26977;44.830;-0.674;2022-11-20T09:03:15;9.60;99.90
35690;DHT22;26977;44.830;-0.674;2022-11-20T09:05:40;9.70;99.90
35690;DHT22;26977;44.830;-0.674;2022-11-20T09:08:06;9.80;99.90
35690;DHT22;26977;44.830;-0.674;2022-11-20T09:10:32;9.90;99.90
35690;DHT22;26977;44.830;-0.674;2022-11-20T09:12:58;10.00;99.90
35690;DHT22;26977;44.830;-0.674;2022-11-20T09:15:24;10.10;99.90
35690;DHT22;26977;44.830;-0.674;2022-11-20T09:17:56;10.20;99.90
35690;DHT22;26977;44.830;-0.674;2022-11-20T09:20:22;10.20;99.90
35690;DHT22;26977;44.830;-0.674;2022-11-20T09:22:48;10.20;99.90
35690;DHT22;26977;44.830;-0.674;2022-11-20T09:25:13;10.20;99.90
35690;DHT22;26977;44.830;-0.674;2022-11-20T09:27:39;10.10;99.90
35690;DHT22;26977;44.830;-0.674;2022-11-20T09:30:07;10.10;99.90
35690;DHT22;26977;44.830;-0.674;2022-11-20T09:32:33;10.10;99.90
35690;DHT22;26977;44.830;-0.674;2022-11-20T09:34:59;10.30;99.90
35690;DHT22;26977;44.830;-0.674;2022-11-20T09:37:24;10.40;99.90
35690;DHT22;26977;44.830;-0.674;2022-11-20T09:39:50;10.50;99.90
35690;DHT22;26977;44.830;-0.674;2022-11-20T09:45:28;10.30;99.90
35690;DHT22;26977;44.830;-0.674;2022-11-20T09:55:33;10.30;99.90
35690;DHT22;26977;44.830;-0.674;2022-11-20T09:57:59;10.40;99.90
35690;DHT22;26977;44.830;-0.674;2022-11-20T10:00:27;10.40;99.90
35690;DHT22;26977;44.830;-0.674;2022-11-20T10:05:54;10.40;99.90
35690;DHT22;26977;44.830;-0.674;2022-11-20T10:08:30;10.50;99.90
35690;DHT22;26977;44.830;-0.674;2022-11-20T10:11:06;10.40;99.90
35690;DHT22;26977;44.830;-0.674;2022-11-20T10:19:27;10.90;99.90
35690;DHT22;26977;44.830;-0.674;2022-11-20T10:24:55;10.70;99.90
35690;DHT22;26977;44.830;-0.674;2022-11-20T10:30:18;10.80;99.90
35690;DHT22;26977;44.830;-0.674;2022-11-20T10:32:59;10.90;99.90
35690;DHT22;26977;44.830;-0.674;2022-11-20T10:38:31;11.00;99.90
35690;DHT22;26977;44.830;-0.674;2022-11-20T10:41:02;11.10;99.90
35690;DHT22;26977;44.830;-0.674;2022-11-20T10:44:25;11.20;99.90
35690;DHT22;26977;44.830;-0.674;2022-11-20T10:47:19;11.20;99.90
35690;DHT22;26977;44.830;-0.674;2022-11-20T10:49:48;11.20;99.90
35690;DHT22;26977;44.830;-0.674;2022-11-20T11:00:05;11.50;99.90
35690;DHT22;26977;44.830;-0.674;2022-11-20T11:02:35;11.60;99.90
35690;DHT22;26977;44.830;-0.674;2022-11-20T11:07:53;11.70;99.90
35690;DHT22;26977;44.830;-0.674;2022-11-20T11:10:46;11.90;99.90
35690;DHT22;26977;44.830;-0.674;2022-11-20T11:13:21;12.00;99.90
35690;DHT22;26977;44.830;-0.674;2022-11-20T11:15:47;12.20;99.90
35690;DHT22;26977;44.830;-0.674;2022-11-20T11:18:26;12.40;99.90
35690;DHT22;26977;44.830;-0.674;2022-11-20T11:20:53;12.50;99.90
35690;DHT22;26977;44.830;-0.674;2022-11-20T11:25:58;12.80;99.90
35690;DHT22;26977;44.830;-0.674;2022-11-20T11:28:25;12.70;99.90
35690;DHT22;26977;44.830;-0.674;2022-11-20T11:30:53;12.80;99.90
35690;DHT22;26977;44.830;-0.674;2022-11-20T11:33:31;12.80;99.90
35690;DHT22;26977;44.830;-0.674;2022-11-20T11:36:04;13.00;99.90
35690;DHT22;26977;44.830;-0.674;2022-11-20T11:38:41;13.20;99.90
35690;DHT22;26977;44.830;-0.674;2022-11-20T11:41:15;13.20;99.90
35690;DHT22;26977;44.830;-0.674;2022-11-20T11:43:56;13.50;99.90
35690;DHT22;26977;44.830;-0.674;2022-11-20T11:46:53;13.40;99.90
35690;DHT22;26977;44.830;-0.674;2022-11-20T11:49:20;13.40;99.90
35690;DHT22;26977;44.830;-0.674;2022-11-20T11:54:55;13.50;99.90
35690;DHT22;26977;44.830;-0.674;2022-11-20T11:57:29;13.70;99.90
35690;DHT22;26977;44.830;-0.674;2022-11-20T12:00:16;13.70;99.90
35690;DHT22;26977;44.830;-0.674;2022-11-20T12:05:30;13.80;99.90
35690;DHT22;26977;44.830;-0.674;2022-11-20T12:08:53;13.60;99.90
35690;DHT22;26977;44.830;-0.674;2022-11-20T12:16:00;13.80;99.90
35690;DHT22;26977;44.830;-0.674;2022-11-20T12:18:27;13.80;99.90
35690;DHT22;26977;44.830;-0.674;2022-11-20T12:23:44;13.70;99.90
35690;DHT22;26977;44.830;-0.674;2022-11-20T12:32:16;14.00;99.90
35690;DHT22;26977;44.830;-0.674;2022-11-20T12:35:12;14.10;99.90
35690;DHT22;26977;44.830;-0.674;2022-11-20T12:43:31;14.60;99.90
35690;DHT22;26977;44.830;-0.674;2022-11-20T12:48:59;14.70;99.90
35690;DHT22;26977;44.830;-0.674;2022-11-20T13:02:01;14.50;99.90
35690;DHT22;26977;44.830;-0.674;2022-11-20T13:04:50;14.70;99.90
35690;DHT22;26977;44.830;-0.674;2022-11-20T13:07:19;14.70;99.90
35690;DHT22;26977;44.830;-0.674;2022-11-20T13:09:50;14.70;99.90
35690;DHT22;26977;44.830;-0.674;2022-11-20T13:17:59;14.40;99.90
35690;DHT22;26977;44.830;-0.674;2022-11-20T13:20:26;13.20;99.90
35690;DHT22;26977;44.830;-0.674;2022-11-20T13:22:54;12.80;99.90
35690;DHT22;26977;44.830;-0.674;2022-11-20T13:25:31;12.60;99.90
35690;DHT22;26977;44.830;-0.674;2022-11-20T13:28:00;12.60;99.90
35690;DHT22;26977;44.830;-0.674;2022-11-20T13:30:28;12.60;99.90
35690;DHT22;26977;44.830;-0.674;2022-11-20T13:33:02;12.60;99.90
35690;DHT22;26977;44.830;-0.674;2022-11-20T13:38:04;12.70;99.90
35690;DHT22;26977;44.830;-0.674;2022-11-20T13:40:30;12.70;99.90
35690;DHT22;26977;44.830;-0.674;2022-11-20T13:45:59;12.90;99.90
35690;DHT22;26977;44.830;-0.674;2022-11-20T13:48:34;13.00;99.90
35690;DHT22;26977;44.830;-0.674;2022-11-20T13:51:09;13.00;99.90
35690;DHT22;26977;44.830;-0.674;2022-11-20T14:01:32;12.90;99.90
35690;DHT22;26977;44.830;-0.674;2022-11-20T14:03:58;12.90;99.90
35690;DHT22;26977;44.830;-0.674;2022-11-20T14:06:32;12.90;99.90
35690;DHT22;26977;44.830;-0.674;2022-11-20T14:09:00;12.90;99.90
35690;DHT22;26977;44.830;-0.674;2022-11-20T14:11:30;12.90;99.90
35690;DHT22;26977;44.830;-0.674;2022-11-20T14:14:15;12.90;99.90
35690;DHT22;26977;44.830;-0.674;2022-11-20T14:16:41;12.80;99.90
35690;DHT22;26977;44.830;-0.674;2022-11-20T14:24:46;12.80;99.90
35690;DHT22;26977;44.830;-0.674;2022-11-20T14:27:18;12.80;99.90
35690;DHT22;26977;44.830;-0.674;2022-11-20T14:29:46;12.70;99.90
35690;DHT22;26977;44.830;-0.674;2022-11-20T14:32:17;12.60;99.90
35690;DHT22;26977;44.830;-0.674;2022-11-20T14:34:47;12.60;99.90
35690;DHT22;26977;44.830;-0.674;2022-11-20T14:37:18;12.50;99.90
35690;DHT22;26977;44.830;-0.674;2022-11-20T14:39:51;12.30;99.90
35690;DHT22;26977;44.830;-0.674;2022-11-20T14:42:26;11.90;99.90
35690;DHT22;26977;44.830;-0.674;2022-11-20T14:44:57;11.70;99.90
35690;DHT22;26977;44.830;-0.674;2022-11-20T14:47:26;11.60;99.90
35690;DHT22;26977;44.830;-0.674;2022-11-20T14:49:53;11.60;99.90
35690;DHT22;26977;44.830;-0.674;2022-11-20T14:52:22;11.50;99.90
35690;DHT22;26977;44.830;-0.674;2022-11-20T14:54:50;11.50;99.90
35690;DHT22;26977;44.830;-0.674;2022-11-20T14:57:35;11.50;99.90
35690;DHT22;26977;44.830;-0.674;2022-11-20T15:00:05;11.60;99.90
35690;DHT22;26977;44.830;-0.674;2022-11-20T15:02:31;11.60;99.90
35690;DHT22;26977;44.830;-0.674;2022-11-20T15:04:59;11.70;99.90
35690;DHT22;26977;44.830;-0.674;2022-11-20T15:07:29;11.80;99.90
35690;DHT22;26977;44.830;-0.674;2022-11-20T15:10:08;11.80;99.90
35690;DHT22;26977;44.830;-0.674;2022-11-20T15:12:37;11.90;99.90
35690;DHT22;26977;44.830;-0.674;2022-11-20T15:15:04;11.90;99.90
35690;DHT22;26977;44.830;-0.674;2022-11-20T15:17:32;11.90;99.90
35690;DHT22;26977;44.830;-0.674;2022-11-20T15:20:00;11.80;99.90
35690;DHT22;26977;44.830;-0.674;2022-11-20T15:22:27;11.70;99.90
35690;DHT22;26977;44.830;-0.674;2022-11-20T15:24:53;11.70;99.90
35690;DHT22;26977;44.830;-0.674;2022-11-20T15:27:19;11.70;99.90
35690;DHT22;26977;44.830;-0.674;2022-11-20T15:29:44;11.60;99.90
35690;DHT22;26977;44.830;-0.674;2022-11-20T15:32:10;11.60;99.90
35690;DHT22;26977;44.830;-0.674;2022-11-20T15:34:36;11.60;99.90
35690;DHT22;26977;44.830;-0.674;2022-11-20T15:37:01;11.60;99.90
35690;DHT22;26977;44.830;-0.674;2022-11-20T15:39:27;11.60;99.90
35690;DHT22;26977;44.830;-0.674;2022-11-20T15:41:53;11.70;99.90
35690;DHT22;26977;44.830;-0.674;2022-11-20T15:44:18;11.70;99.90
35690;DHT22;26977;44.830;-0.674;2022-11-20T15:46:44;11.70;99.90
35690;DHT22;26977;44.830;-0.674;2022-11-20T15:49:16;11.70;99.90
35690;DHT22;26977;44.830;-0.674;2022-11-20T15:51:45;11.60;99.90
35690;DHT22;26977;44.830;-0.674;2022-11-20T15:54:17;11.60;99.90
35690;DHT22;26977;44.830;-0.674;2022-11-20T15:56:45;11.60;99.90
35690;DHT22;26977;44.830;-0.674;2022-11-20T15:59:11;11.60;99.90
35690;DHT22;26977;44.830;-0.674;2022-11-20T16:01:37;11.60;99.90
35690;DHT22;26977;44.830;-0.674;2022-11-20T16:04:05;11.60;99.90
35690;DHT22;26977;44.830;-0.674;2022-11-20T16:06:33;11.50;99.90
35690;DHT22;26977;44.830;-0.674;2022-11-20T16:08:59;11.50;99.90
35690;DHT22;26977;44.830;-0.674;2022-11-20T16:11:24;11.50;99.90
35690;DHT22;26977;44.830;-0.674;2022-11-20T16:13:50;11.50;99.90
35690;DHT22;26977;44.830;-0.674;2022-11-20T16:16:36;11.40;99.90
35690;DHT22;26977;44.830;-0.674;2022-11-20T16:19:02;11.40;99.90
35690;DHT22;26977;44.830;-0.674;2022-11-20T16:21:28;11.30;99.90
35690;DHT22;26977;44.830;-0.674;2022-11-20T16:24:02;11.20;99.90
35690;DHT22;26977;44.830;-0.674;2022-11-20T16:26:28;11.20;99.90
35690;DHT22;26977;44.830;-0.674;2022-11-20T16:28:55;11.10;99.90
35690;DHT22;26977;44.830;-0.674;2022-11-20T16:31:21;11.10;99.90
35690;DHT22;26977;44.830;-0.674;2022-11-20T16:33:55;11.00;99.90
35690;DHT22;26977;44.830;-0.674;2022-11-20T16:36:22;11.00;99.90
35690;DHT22;26977;44.830;-0.674;2022-11-20T16:38:58;10.90;99.90
35690;DHT22;26977;44.830;-0.674;2022-11-20T16:41:26;10.80;99.90
35690;DHT22;26977;44.830;-0.674;2022-11-20T16:43:57;10.80;99.90
35690;DHT22;26977;44.830;-0.674;2022-11-20T16:46:25;10.80;99.90
35690;DHT22;26977;44.830;-0.674;2022-11-20T16:48:55;10.80;99.90
35690;DHT22;26977;44.830;-0.674;2022-11-20T16:51:21;10.70;99.90
35690;DHT22;26977;44.830;-0.674;2022-11-20T16:53:47;10.60;99.90
35690;DHT22;26977;44.830;-0.674;2022-11-20T16:56:19;10.50;99.90
35690;DHT22;26977;44.830;-0.674;2022-11-20T16:58:48;10.40;99.90
35690;DHT22;26977;44.830;-0.674;2022-11-20T17:01:17;10.40;99.90
35690;DHT22;26977;44.830;-0.674;2022-11-20T17:03:45;10.50;99.90
35690;DHT22;26977;44.830;-0.674;2022-11-20T17:06:17;10.40;99.90
35690;DHT22;26977;44.830;-0.674;2022-11-20T17:08:43;10.50;99.90
35690;DHT22;26977;44.830;-0.674;2022-11-20T17:11:11;10.40;99.90
35690;DHT22;26977;44.830;-0.674;2022-11-20T17:13:37;10.40;99.90
35690;DHT22;26977;44.830;-0.674;2022-11-20T17:16:05;10.40;99.90
35690;DHT22;26977;44.830;-0.674;2022-11-20T17:18:31;10.40;99.90
35690;DHT22;26977;44.830;-0.674;2022-11-20T17:20:58;10.30;99.90
35690;DHT22;26977;44.830;-0.674;2022-11-20T17:23:28;10.30;99.90
35690;DHT22;26977;44.830;-0.674;2022-11-20T17:28:32;10.20;99.90
35690;DHT22;26977;44.830;-0.674;2022-11-20T17:31:11;10.20;99.90
35690;DHT22;26977;44.830;-0.674;2022-11-20T17:33:39;10.10;99.90